Tiempo atmosférico en la estación meteorológica de Cabo Busto, Asturias (63 m.)



Fecha
DESCASC
Temp. máxima en grados centígrados (hora)
DESCASC
Temp. mínima en grados centígrados (hora)
DESCASC
Temp. media en grados centígrados
DESCASC
Racha de viento máxima en m/sg (hora)
DESCASC
Velocidad máxima media en intervalos de 10 minutos(hora)
DESCASC
Precipitaciones diarias en mm
DESCASC
Precipitaciones de 00:00 a 06:00 en mm
DESCASC
Precipitaciones de 06:00 a 12:00 en mm
DESCASC
Precipitaciones de 12:00 a 18:00 en mm
DESCASC
Precipitaciones de 18:00 a 24:00 en mm
DESCASC
06-12-2018 16.1 (15:50) 8.9 (23:50) 12.5 13.89 (14:00) 9.17 (14:10) 0 0 0 0 0
05-12-2018 20.9 (14:50) 10.1 (08:00) 15.5 21.11 (09:30) 17.22 (09:30) 0 0 0 0 0
04-12-2018 18.3 (12:30) 12.9 (08:00) 15.6 7.78 (09:20) 5.83 (09:20) 0 0 0 0 0
03-12-2018 19.9 (16:00) 14.5 (00:00) 17.2 23.33 (03:20) 15.28 (03:20) 11.6 0 11.6 0 0
02-12-2018 20 (22:50) 16.5 (00:00) 18.3 21.11 (13:40) 15.83 (12:00) 0.2 0 0.2 0 0
01-12-2018 17.8 (19:30) 12.2 (00:00) 15 22.5 (13:40) 16.94 (13:30) 0 0 0 0 0
30-11-2018 15.9 (14:50) 12.1 (00:00) 14 14.44 (09:00) 9.72 (09:00) 0 0 0 0 0
29-11-2018 19.3 (06:50) 12.7 (00:00) 16 18.33 (08:00) 13.33 (10:20) 0 0 0 0 0
28-11-2018 17.4 (11:50) 5.3 (00:00) 11.3 9.17 (08:50) 6.94 (08:40) 0.2 0 0 0 0.2
27-11-2018 15.1 (16:30) 7.7 (00:00) 11.4 11.94 (15:40) 8.89 (15:40) 0 0 0 0 0
26-11-2018 13.5 (16:10) 7 (03:00) 10.3 14.72 (08:20) 12.22 (08:20) 9.2 9 0.2 0 0
25-11-2018 13.3 (14:00) 6.2 (00:00) 9.8 13.06 (01:10) 10 (01:30) 3.2 1.6 0 0 1.6
24-11-2018 13.9 (12:30) 8.6 (00:00) 11.3 16.11 (21:40) 11.94 (22:20) 24.6 0 0.2 5 19.4
23-11-2018 14.2 (16:10) 9.1 (00:00) 11.7 18.33 (15:00) 14.17 (14:20) 0 0 0 0 0
22-11-2018 14.1 (13:50) 9.1 (00:00) 11.6 6.67 (05:50) 5.28 (22:40) 0 0 0 0 0
21-11-2018 15.8 (15:40) 6.3 (00:00) 11.1 11.39 (16:10) 8.06 (16:10) 0 0 0 0 0
20-11-2018 12.1 (00:00) 8.1 (00:00) 10.1 11.94 (08:50) 7.5 (08:40) 1.4 0.4 1 0 0
19-11-2018 15.6 (12:00) 9.9 (00:00) 12.8 11.11 (23:50) 6.39 (23:10) 0.4 0 0 0 0.4
18-11-2018 14.7 (11:40) 10.6 (00:00) 12.7 15 (09:00) 8.89 (16:20) 1.6 0 0 0 1.6
17-11-2018 20.6 (12:40) 11.1 (00:00) 15.9 7.78 (02:30) 6.39 (04:50) 0 0 0 0 0
16-11-2018 17.7 (13:20) 10.8 (00:00) 14.3 9.17 (05:40) 7.22 (05:40) 0 0 0 0 0
15-11-2018 19.3 (13:00) 11.3 (00:00) 15.3 9.44 (17:20) 6.39 (17:20) 0 0 0 0 0
14-11-2018 15.8 (12:00) 8.6 (00:00) 12.2 10 (12:00) 5.28 (07:30) 0 0 0 0 0
13-11-2018 15.4 (14:40) 6.7 (00:00) 11 9.17 (07:20) 6.94 (07:30) 0 0 0 0 0
12-11-2018 16.7 (14:50) 8.3 (00:00) 12.5 7.22 (23:30) 6.11 (23:30) 0 0 0 0 0
11-11-2018 18 (04:40) 11.4 (00:00) 14.7 19.17 (01:40) 12.78 (00:10) 2.8 0 0.2 0.6 2
10-11-2018 17.9 (16:10) 13.4 (00:00) 15.6 -- (--) -- (--) 3.8 3.2 0.6 0 0

Gráficas

Temp. máximas Temp. mínimas Temp. medias Precipitaciones Rachas de viento máximas Velocidades máximas media en intervalos de 10 minutos

Datos horarios

Fecha y hora oficial Temperatura (ºC) Velocidad del viento (km/h) Dirección del viento Racha (km/h) Dirección de racha Precipitación (mm) Presión (hPa) Tendencia (hPa) Humedad (%)
2018-12-09 23:00:00 12 8 Sudeste 12 Sudeste 0 1026.9 0 82
2018-12-09 22:00:00 12.3 5 Sudeste 7 Oeste 0 1027.3 0.9 82
2018-12-09 21:00:00 13 3 Sur 8 Sudoeste 0 1027.3 1.4 82
2018-12-09 20:00:00 13.1 0 Calma 12 Noroeste 0 1026.9 1.3 82
2018-12-09 19:00:00 13.1 3 Oeste 22 Noroeste 0 1026.4 1.2 82
2018-12-09 18:00:00 13.3 6 Oeste 18 Oeste 0 1025.9 0.9 79
2018-12-09 17:00:00 13.5 9 Noroeste 22 Noroeste 0 1025.6 0.2 77
2018-12-09 16:00:00 14 12 Oeste 23 Oeste 0 1025.2 -0.2 77
2018-12-09 15:00:00 14.2 13 Oeste 26 Oeste 0 1025 -0.5 75
2018-12-09 14:00:00 14.4 10 Oeste 26 Oeste 0 1025.4 0 76
2018-12-09 13:00:00 14 14 Oeste 26 Oeste 0 1025.4 0.9 78
2018-12-09 12:00:00 14.1 15 Oeste 35 Oeste 0 1025.5 1.8 80
2018-12-09 11:00:00 14 22 Oeste 35 Oeste 0 1025.4 1.4 81
2018-12-09 10:00:00 13 21 Oeste 38 Oeste 0 1024.5 1.6 85
2018-12-09 09:00:00 13.4 20 Oeste 40 Oeste 0 1023.7 1.1 85
2018-12-09 08:00:00 13.6 17 Oeste 29 Oeste 0 1024 1.5 69
2018-12-09 07:00:00 13.8 16 Sudoeste 27 Sudoeste 0 1022.9 0.8 69
2018-12-09 06:00:00 13.9 23 Oeste 31 Oeste 0 1022.6 0.9 69
2018-12-09 05:00:00 13.6 26 Oeste 41 Oeste 0 1022.5 0.8 76
2018-12-09 04:00:00 13.8 17 Oeste 27 Oeste 0 1022.1 1 74
2018-12-09 03:00:00 13.8 22 Oeste 32 Oeste 0 1021.7 0.7 76
2018-12-09 02:00:00 14.9 12 Oeste 46 Oeste 0 1021.7 0.8 71
2018-12-09 01:00:00 16.4 37 Oeste 59 Oeste 0 1021.1 0.6 61
2018-12-09 00:00:00 16.5 39 Oeste 53 Oeste 0 1021 1.1 66
2018-12-08 23:00:00 17 39 Oeste 52 Oeste 0 1020.9 1.2 63
2018-12-08 22:00:00 17.4 39 Oeste 51 Oeste 0 1020.5 0.9 60
2018-12-08 21:00:00 18 41 Oeste 58 Oeste 0 1019.9 0 54
2018-12-08 20:00:00 18 34 Oeste 54 Oeste 0 1019.7 -0.2 52
2018-12-08 19:00:00 17.7 35 Oeste 48 Oeste 0 1019.6 -0.3 49
2018-12-08 18:00:00 15 17 Oeste 25 Oeste 0 1019.9 -0.2 62
2018-12-08 17:00:00 16 10 Oeste 20 Oeste 0 1019.9 -0.8 67
2018-12-08 16:00:00 16.4 9 Oeste 16 Oeste 0 1019.9 -1.3 67
2018-12-08 15:00:00 15.9 8 Oeste 14 Oeste 0 1020.1 -1.3 66
2018-12-08 14:00:00 16.8 6 Oeste 19 Noroeste 0 1020.7 -1.2 63
2018-12-08 13:00:00 15.9 8 Oeste 24 Oeste 0 1021.2 -1 61
2018-12-08 12:00:00 14.7 6 Norte 13 Sur 0 1021.4 -1.2 60
2018-12-08 11:00:00 14.5 8 Sudoeste 31 Sudoeste 0 1021.9 -0.5 50
2018-12-08 10:00:00 12.7 17 Sudoeste 35 Oeste 0 1022.2 0 57
2018-12-08 09:00:00 12 21 Oeste 41 Oeste 0 1022.6 0.6 62
2018-12-08 08:00:00 12.2 25 Oeste 42 Oeste 0 1022.4 0.5 60
2018-12-08 07:00:00 12 26 Oeste 43 Oeste 0 1022.2 -0.2 62
2018-12-08 06:00:00 12 23 Sudoeste 40 Oeste 0 1022 0.1 62
2018-12-08 05:00:00 11.8 18 Sudoeste 42 Oeste 0 1021.9 0 63
2018-12-08 04:00:00 11.7 29 Oeste 42 Oeste 0 1022.4 0 63
2018-12-08 03:00:00 11.5 19 Sudoeste 37 Oeste 0 1021.9 -0.3 63
2018-12-08 02:00:00 11.4 16 Sudoeste 27 Sudoeste 0 1021.9 -0.4 63
2018-12-08 01:00:00 11.8 18 Sudoeste 34 Oeste 0 1022.4 0.1 64
2018-12-08 00:00:00 12 26 Oeste 35 Oeste 0 1022.2 0.2 66
2018-12-07 23:00:00 11.9 28 Oeste 40 Sudoeste 0 1022.3 0.7 67
2018-12-07 22:00:00 12.5 32 Oeste 45 Oeste 0 1022.3 1 67
2018-12-07 21:00:00 12.4 24 Oeste 33 Sudoeste 0 1022 1.3 68
2018-12-07 20:00:00 12.4 23 Oeste 37 Oeste 0 1021.6 2.1 71
2018-12-07 19:00:00 12.6 27 Oeste 50 Oeste 0 1021.3 3.1 76
2018-12-07 18:00:00 12.6 34 Oeste 60 Oeste 0 1020.7 2.6 78
2018-12-07 17:00:00 12.7 37 Oeste 74 Oeste 0.2 1019.5 3.1 85
2018-12-07 16:00:00 12.6 46 Oeste 75 Oeste 0.2 1018.2 2 87
2018-12-07 15:00:00 12.6 39 Oeste 100 Oeste 0 1018.1 2 87
2018-12-07 14:00:00 16.7 43 Oeste 81 Oeste 0 1016.4 0.6 65
2018-12-07 13:00:00 17 44 Oeste 70 Oeste 0 1016.2 0.2 62
2018-12-07 12:00:00 16.8 47 Oeste 77 Oeste 0 1016.1 -0.4 62
2018-12-07 11:00:00 16.5 39 Oeste 70 Oeste 0 1015.8 -0.7 60
2018-12-07 10:00:00 16.2 40 Oeste 67 Oeste 0 1016 -1.2 56
2018-12-07 09:00:00 14.9 41 Oeste 59 Oeste 0 1016.5 -1.2 62
2018-12-07 08:00:00 14.9 50 Oeste 73 Oeste 0 1016.5 -0.8 61
2018-12-07 07:00:00 12.2 25 Sudoeste 33 Sudoeste 0 1017.2 -0.7 71
2018-12-07 06:00:00 7.8 5 Sudoeste 18 Sudeste 0 1017.7 -0.3 82
2018-12-07 05:00:00 7.6 7 Sudeste 21 Sudeste 0 1017.3 -1.3 77
2018-12-07 04:00:00 7.7 14 Sudeste 19 Sudeste 0 1017.9 -1.5 80
2018-12-07 03:00:00 7.4 15 Sudeste 20 Sudeste 0 1018 -2 81
2018-12-07 02:00:00 8.1 14 Sudeste 18 Sudeste 0 1018.6 -1.8 80
2018-12-07 01:00:00 8.6 12 Sur 18 Sur 0 1019.4 -1.3 79
2018-12-07 00:00:00 9 8 Sur 15 Sudeste 0 1020 -1.1 78
2018-12-06 23:00:00 9.2 11 Sudeste 19 Sudeste 0 1020.4 -1 78
2018-12-06 22:00:00 9.4 13 Sur 19 Sudeste 0 1020.7 -0.7 80
2018-12-06 21:00:00 10.2 13 Sudeste 19 Sudeste 0 1021.1 -0.1 81
2018-12-06 20:00:00 10.8 13 Sudeste 17 Sur 0 1021.4 0.6 81
2018-12-06 19:00:00 11.8 10 Sur 14 Oeste 0 1021.4 1.2 75
2018-12-06 18:00:00 14 9 Sudoeste 26 Oeste 0 1021.2 0.6 73
2018-12-06 17:00:00 14.8 23 Oeste 44 Oeste 0 1020.8 -0.1 73
2018-12-06 16:00:00 16.1 28 Oeste 46 Oeste 0 1020.2 -1.4 62
2018-12-06 15:00:00 16 28 Oeste 50 Oeste 0 1020.6 -1.8 66
2018-12-06 14:00:00 15.7 31 Oeste 50 Oeste 0 1020.9 -1.3 67
2018-12-06 13:00:00 15.7 28 Oeste 42 Oeste 0 1021.6 -0.1 69
2018-12-06 12:00:00 15.2 26 Oeste 42 Oeste 0 1022.4 1.3 70
2018-12-06 11:00:00 14.1 19 Oeste 37 Oeste 0 1022.2 1.7 75
2018-12-06 10:00:00 13.1 15 Oeste 33 Sudoeste 0 1021.7 1.5 75
2018-12-06 09:00:00 12.5 18 Oeste 32 Oeste 0 1021.1 1.1 79
2018-12-06 08:00:00 12.6 22 Oeste 36 Oeste 0 1020.5 0.5 80
2018-12-06 07:00:00 13 16 Sudoeste 26 Sudoeste 0 1020.2 0.3 79
2018-12-06 06:00:00 13.2 17 Oeste 31 Oeste 0 1020 0.8 79
2018-12-06 05:00:00 13.3 13 Sudoeste 34 Oeste 0 1020 1.5 81
2018-12-06 04:00:00 13.3 21 Oeste 33 Oeste 0 1019.9 1.1 84
2018-12-06 03:00:00 13.7 19 Oeste 33 Oeste 0 1019.2 0.8 83
2018-12-06 02:00:00 13.9 21 Oeste 37 Oeste 0 1018.5 0.5 83
2018-12-06 01:00:00 14.3 15 Oeste 37 Oeste 0 1018.8 1.2 80
2018-12-06 00:00:00 14.8 22 Oeste 43 Oeste 0 1018.4 1.1 79
2018-12-05 23:00:00 15 24 Oeste 40 Oeste 0 1018 2 79
2018-12-05 22:00:00 15.6 15 Oeste 30 Oeste 0 1017.6 2.5 76
2018-12-05 21:00:00 16.1 19 Oeste 48 Oeste 0 1017.3 3 73
2018-12-05 20:00:00 18.3 39 Oeste 55 Oeste 0 1016 2.2 61
2018-12-05 19:00:00 18.4 42 Oeste 58 Oeste 0 1015.1 2.1 60
2018-12-05 18:00:00 18.6 42 Oeste 56 Sudoeste 0 1014.3 1.4 59
2018-12-05 17:00:00 19.7 41 Oeste 63 Oeste 0 1013.8 0.6 56
2018-12-05 16:00:00 20.3 46 Oeste 68 Oeste 0 1013 -1.1 51
2018-12-05 15:00:00 20.7 41 Oeste 57 Oeste 0 1012.9 -0.8 50
2018-12-05 14:00:00 19.1 26 Oeste 59 Oeste 0 1013.2 -0.7 52
2018-12-05 13:00:00 17.9 -- -- -- -- 0 1014.1 0.3 56
2018-12-05 12:00:00 17.8 16 Sudeste 32 Sudeste 0 1013.7 -1.2 53
2018-12-05 11:00:00 16.7 13 Sur 43 Sur 0 1013.9 -0.6 55
2018-12-05 10:00:00 15.9 21 Sudoeste -- -- 0 1013.8 -0.2 58
2018-12-05 09:00:00 11.2 11 Sur 23 Sudeste 0 1014.9 1.2 86
2018-12-05 08:00:00 10.1 15 Sur 23 Sur 0 1014.5 0.8 88
2018-12-05 07:00:00 10.5 17 Sudeste 27 Sudeste 0 1014 0.1 88
2018-12-05 06:00:00 11 17 Sudeste 24 Sudeste 0 1013.7 -0.2 88
2018-12-05 05:00:00 11.4 18 Sudeste 23 Sudeste 0 1013.7 -0.1 89
2018-12-05 04:00:00 11.2 15 Sudeste 20 Sudeste 0 1013.9 0.1 88
2018-12-05 03:00:00 10.3 15 Sur 19 Sur 0 1013.9 0.4 88
2018-12-05 02:00:00 11.1 13 Sur 15 Sur 0 1013.8 0.7 86
2018-12-05 01:00:00 13.3 10 Sudoeste 18 Sudoeste 0 1013.8 1.1 80
2018-12-05 00:00:00 14 14 Sudoeste 21 Sudoeste 0 1013.5 0.9 81
2018-12-04 23:00:00 14 18 Sudoeste 25 Oeste 0 1013.1 0.7 81
2018-12-04 22:00:00 14.1 12 Oeste 20 Oeste 0 1012.7 0.2 83
2018-12-04 21:00:00 14 15 Sudoeste 20 Oeste 0 1012.6 0.4 88
2018-12-04 20:00:00 13.7 8 Oeste 15 Oeste 0 1012.4 0.6 89
2018-12-04 19:00:00 14 11 Sudoeste 15 Oeste 0 1012.5 0.8 87
2018-12-04 18:00:00 14.4 9 Oeste 13 Oeste 0 1012.2 0.3 86
2018-12-04 17:00:00 15.1 9 Sudoeste 11 Oeste 0 1011.8 -0.5 84
2018-12-04 16:00:00 16.7 6 Oeste 9 Oeste 0 1011.7 -1.3 79
2018-12-04 15:00:00 16.5 5 Oeste 11 Oeste 0 1011.9 -1.9 80
2018-12-04 14:00:00 17 10 Este 15 Este 0 1012.3 -2.1 75
2018-12-04 13:00:00 16.5 10 Este 19 Sudeste 0 1013 -1 74
2018-12-04 12:00:00 16.8 17 Sudeste 25 Sudeste 0 1013.8 0.1 74
2018-12-04 11:00:00 16 11 Sur 25 Sudeste 0 1014.4 0.6 78
2018-12-04 10:00:00 14.5 19 Sudeste 28 Sudeste 0 1014 0.1 83
2018-12-04 09:00:00 13.6 19 Sudeste 27 Sudeste 0 1013.7 -0.4 87
2018-12-04 08:00:00 12.9 16 Sudeste 19 Sudeste 0 1013.8 -0.4 90
2018-12-04 07:00:00 13.4 11 Sudeste 14 Sudeste 0 1013.9 -0.3 91
2018-12-04 06:00:00 13.6 9 Sudeste 14 Sudeste 0 1014.1 0.1 91
2018-12-04 05:00:00 14.4 4 Sudeste 17 Este 0 1014.2 0 91
2018-12-04 04:00:00 14.6 10 Este 21 Este 0 1014.2 -0.2 91
2018-12-04 03:00:00 14.8 11 Este 17 Este 0 1014 -0.4 90
2018-12-04 02:00:00 14.8 11 Este 20 Nordeste 0 1014.2 0.1 90
2018-12-04 01:00:00 14.9 10 Este 17 Nordeste 0 1014.4 0.3 89
2018-12-04 00:00:00 15 7 Nordeste 15 Este 0 1014.4 0.4 89
2018-12-03 23:00:00 15.2 8 Este 12 Este 0 1014.1 0.6 87
2018-12-03 22:00:00 15.2 4 Sudeste 14 Este 0 1014.1 1.2 88
2018-12-03 21:00:00 15.1 10 Este 14 Este 0 1014 1.8 88
2018-12-03 20:00:00 15.3 9 Este 15 Nordeste 0 1013.5 1.9 85
2018-12-03 19:00:00 15.7 9 Noroeste 24 Noroeste 0 1012.9 1.9 84
2018-12-03 18:00:00 18.8 23 Oeste 36 Oeste 0 1012.2 1.2 68
2018-12-03 17:00:00 19.2 26 Oeste 45 Oeste 0 1011.6 0.6 66
2018-12-03 16:00:00 19.7 31 Oeste 41 Oeste 0 1011 -0.1 64
2018-12-03 15:00:00 19.2 32 Oeste 45 Oeste 0 1011 -0.2 66
2018-12-03 14:00:00 18.7 30 Oeste 46 Oeste 0 1011 -0.2 68
2018-12-03 13:00:00 18.6 27 Oeste 54 Oeste 0 1011.1 0.6 68
2018-12-03 12:00:00 18 28 Oeste 49 Oeste 0.2 1011.2 1 70
2018-12-03 11:00:00 15.4 12 Sudoeste 22 Sudoeste 1 1011.2 2.5 88
2018-12-03 10:00:00 14.7 5 Oeste 26 Oeste 2.6 1010.5 2.2 88
2018-12-03 09:00:00 15.1 18 Oeste 47 Oeste 7.8 1010.2 1.6 86
2018-12-03 08:00:00 18.4 17 Oeste 43 Oeste 0 1008.7 0.2 65
2018-12-03 07:00:00 19.2 26 Oeste 62 Oeste 0 1008.3 0.2 60
2018-12-03 06:00:00 19.1 31 Sudoeste 60 Oeste 0 1008.6 0.3 59
2018-12-03 05:00:00 19.1 41 Oeste 69 Oeste 0 1008.5 -0.1 59
2018-12-03 04:00:00 19.3 47 Oeste 84 Oeste 0 1008.1 -1.1 57
2018-12-03 03:00:00 19.2 45 Oeste 76 Oeste 0 1008.3 -0.9 58
2018-12-03 02:00:00 19.4 47 Oeste 77 Oeste 0 1008.6 -0.7 57
2018-12-03 01:00:00 19.8 36 Sudoeste 68 Sudoeste 0 1009.2 -0.1 55
2018-12-03 00:00:00 19.6 33 Oeste 57 Oeste 0 1009.2 0.3 56
2018-12-02 23:00:00 19.7 28 Sudoeste 70 Oeste 0 1009.3 0.9 55
2018-12-02 22:00:00 19.7 23 Oeste 45 Oeste 0 1009.3 1 52
2018-12-02 21:00:00 19.5 22 Oeste 51 Oeste 0 1008.9 1.2 50
2018-12-02 20:00:00 19.2 37 Oeste 55 Oeste 0 1008.4 0.3 51
2018-12-02 19:00:00 19.2 26 Oeste 57 Oeste 0 1008.3 0.2 52
2018-12-02 18:00:00 19.2 25 Oeste 43 Oeste 0 1007.7 -0.8 51
2018-12-02 17:00:00 19.2 16 Sudoeste 36 Sudoeste 0 1008.1 -0.1 50
2018-12-02 16:00:00 19.2 19 Sudoeste 48 Oeste 0 1008.1 0.2 49
2018-12-02 15:00:00 18.9 22 Sudoeste 63 Sudoeste 0 1008.5 0.4 47
2018-12-02 14:00:00 18.6 35 Sudoeste 76 Oeste 0 1008.2 -0.5 46
2018-12-02 13:00:00 18.6 43 Oeste 75 Oeste 0 1007.9 -0.2 44
2018-12-02 12:00:00 17.9 57 Oeste 73 Oeste 0 1008.1 -0.4 47
2018-12-02 11:00:00 17.4 46 Oeste 66 Oeste 0 1008.7 0.5 48
2018-12-02 10:00:00 17.3 46 Oeste 69 Oeste 0 1008.1 0.8 48
2018-12-02 09:00:00 16.5 25 Oeste 45 Oeste 0 1008.5 1 52
2018-12-02 08:00:00 17 26 Oeste 60 Sudoeste 0 1008.2 0.4 51
2018-12-02 07:00:00 17 31 Sudoeste 65 Sudoeste 0.2 1007.3 -1.6 53
2018-12-02 06:00:00 17.1 45 Oeste 67 Oeste 0 1007.5 -1.5 53
2018-12-02 05:00:00 18 37 Oeste -- -- 0 1007.8 -0.6 46
2018-12-02 04:00:00 17 35 Oeste 45 Oeste 0 1008.9 0.6 52
2018-12-02 03:00:00 17 21 Oeste 53 Oeste 0 1009 0.3 54
2018-12-02 02:00:00 17.8 38 Oeste 66 Oeste 0 1008.4 -0.5 49
2018-12-02 01:00:00 17.8 48 Oeste 65 Oeste 0 1008.3 -0.8 50
2018-12-02 00:00:00 17.7 32 Oeste 65 Oeste 0 1008.7 0.4 51
2018-12-01 23:00:00 17.1 27 Oeste 55 Oeste 0 1008.9 0.2 56
2018-12-01 22:00:00 16.8 34 Oeste 71 Oeste 0 1009.1 0.8 53
2018-12-01 21:00:00 17.4 52 Oeste 72 Oeste 0 1008.3 0.5 49
2018-12-01 20:00:00 17.7 37 Oeste 65 Oeste 0 1008.7 1.3 44
2018-12-01 19:00:00 17.5 40 Oeste 66 Oeste 0 1008.3 0.5 45
2018-12-01 18:00:00 17.1 39 Oeste 69 Oeste 0 1007.8 0.2 48
2018-12-01 17:00:00 17.5 43 Oeste 59 Oeste 0 1007.4 -1.2 47
2018-12-01 16:00:00 17 36 Oeste 76 Oeste 0 1007.8 -1.2 52
2018-12-01 15:00:00 17.3 49 Oeste 71 Oeste 0 1007.6 -2.5 51
2018-12-01 14:00:00 17.1 37 Oeste 81 Oeste 0 1008.6 -1.2 51
2018-12-01 13:00:00 17.6 39 Oeste 60 Sudoeste 0 1009 -0.5 51
2018-12-01 12:00:00 16.5 39 Oeste 72 Oeste 0 1010.1 -0.6 57
2018-12-01 11:00:00 16.4 46 Oeste 73 Oeste 0 1009.8 -0.7 54
2018-12-01 10:00:00 15.3 42 Oeste 61 Sudoeste 0 1009.5 -1 58
2018-12-01 09:00:00 14.8 29 Oeste 54 Oeste 0 1010.7 0.6 61
2018-12-01 08:00:00 14.6 34 Oeste 50 Oeste 0 1010.5 0.5 58
2018-12-01 07:00:00 14 33 Oeste 54 Oeste 0 1010.5 -0.3 61
2018-12-01 06:00:00 14.8 30 Oeste 57 Oeste 0 1010.1 -1.1 57
2018-12-01 05:00:00 14.7 28 Oeste 42 Oeste 0 1010 -1.8 54
2018-12-01 04:00:00 14.7 20 Oeste 42 Oeste 0 1010.8 -1.9 53
2018-12-01 03:00:00 14.6 23 Oeste 47 Sudoeste 0 1011.2 -1.9 50
2018-12-01 02:00:00 14.2 28 Oeste 43 Oeste 0 1011.8 -1.9 53
2018-12-01 01:00:00 13.6 30 Oeste 43 Oeste 0 1012.7 -1.5 58
2018-12-01 00:00:00 12.2 4 Este 15 Sudoeste 0 1013.1 -1.2 63
2018-11-30 23:00:00 13.6 13 Sudoeste 19 Sudoeste 0 1013.7 -0.8 58
2018-11-30 22:00:00 12.9 12 Sudoeste 17 Oeste 0 1014.2 -0.2 63
2018-11-30 21:00:00 13 14 Oeste 26 Oeste 0 1014.3 0.9 62
2018-11-30 20:00:00 13.1 14 Oeste 26 Sudoeste 0 1014.5 1.2 61
2018-11-30 19:00:00 13.3 13 Oeste 25 Sudoeste 0 1014.4 1.1 62
2018-11-30 18:00:00 13.9 12 Sudoeste 34 Oeste 0 1013.4 0 58
2018-11-30 17:00:00 14.9 25 Oeste 34 Oeste 0 1013.3 -0.4 54
2018-11-30 16:00:00 15.7 17 Oeste 35 Oeste 0 1013.3 -0.3 57
2018-11-30 15:00:00 15.5 13 Oeste 39 Oeste 0 1013.4 -0.2 61
2018-11-30 14:00:00 15.5 22 Oeste 46 Oeste 0 1013.7 0.7 59
2018-11-30 13:00:00 14.9 26 Oeste 42 Sudoeste 0 1013.6 0.8 60
2018-11-30 12:00:00 14.4 29 Oeste 40 Oeste 0 1013.6 1.4 58
2018-11-30 11:00:00 13.7 31 Oeste 43 Oeste 0 1013 1.8 60
2018-11-30 10:00:00 13 27 Oeste 41 Oeste 0 1012.8 2.2 62
2018-11-30 09:00:00 12.5 35 Oeste 52 Oeste 0 1012.2 1.9 64
2018-11-30 08:00:00 12.8 32 Oeste 48 Oeste 0 1011.2 1.2 61
2018-11-30 07:00:00 12.6 31 Oeste 43 Oeste 0 1010.6 0.6 61
2018-11-30 06:00:00 12.8 26 Oeste 43 Oeste 0 1010.3 0.7 60
2018-11-30 05:00:00 12.7 26 Oeste 42 Oeste 0 1010 0.3 62
2018-11-30 04:00:00 12.5 27 Oeste 41 Oeste 0 1010 0.1 63
2018-11-30 03:00:00 12.8 25 Oeste 41 Oeste 0 1009.6 -0.1 62
2018-11-30 02:00:00 13 31 Oeste 44 Oeste 0 1009.7 0.6 62
2018-11-30 01:00:00 12.7 22 Oeste 35 Oeste 0 1009.9 1 63
2018-11-30 00:00:00 12.7 16 Oeste 29 Oeste 0 1009.7 1.1 71
2018-11-29 23:00:00 13 24 Oeste 30 Oeste 0 1009.1 1.2 65
2018-11-29 22:00:00 12.9 19 Oeste 25 Oeste 0 1008.9 1.7 68
2018-11-29 21:00:00 13.7 13 Oeste 32 Oeste 0 1008.6 1.8 66
2018-11-29 20:00:00 13.6 16 Oeste 23 Oeste 0 1007.9 1.8 76
2018-11-29 19:00:00 14.1 11 Oeste 21 Oeste 0 1007.2 1.6 75
2018-11-29 18:00:00 14.9 12 Oeste 45 Oeste 0 1006.8 1.4 69
2018-11-29 17:00:00 16 29 Oeste 37 Oeste 0 1006.1 0.7 56
2018-11-29 16:00:00 15.8 24 Oeste 44 Oeste 0 1005.6 -0.3 59
2018-11-29 15:00:00 16.7 31 Oeste 48 Oeste 0 1005.4 -0.3 61
2018-11-29 14:00:00 15.3 15 Oeste 30 Oeste 0 1005.4 0.5 72
2018-11-29 13:00:00 15.4 22 Oeste 36 Noroeste 0 1005.9 2.1 74
2018-11-29 12:00:00 16.2 14 Oeste 51 Oeste 0 1005.7 2.8 68
2018-11-29 11:00:00 17.2 39 Oeste 62 Oeste 0 1004.9 2.6 60
2018-11-29 10:00:00 17.1 44 Oeste 62 Oeste 0 1003.8 1.9 60
2018-11-29 09:00:00 17.7 41 Oeste 62 Oeste 0 1002.9 1 57
2018-11-29 08:00:00 19.3 31 Sudoeste 66 Sudoeste 0 1002.3 0.7 49
2018-11-29 07:00:00 18.9 28 Oeste 60 Oeste 0 1001.9 0.1 44
2018-11-29 06:00:00 17.6 5 Noroeste 15 Sur 0 1001.9 -1.4 38
2018-11-29 05:00:00 16.8 3 Nordeste 30 Sur 0 1001.6 -2.6 27
2018-11-29 04:00:00 18.5 19 Sur 40 Sudeste 0 1001.8 -2.3 23
2018-11-29 03:00:00 17.7 9 Sur 16 Sudeste 0 1003.3 -0.7 29
2018-11-29 02:00:00 16.3 8 Oeste 27 Sur 0 1004.2 -1.4 56
2018-11-29 01:00:00 14.3 4 Oeste 28 Sudeste 0 1004.1 -2.8 62
2018-11-29 00:00:00 13.5 20 Sudeste 27 Sudeste 0 1004 -3.3 58
2018-11-28 23:00:00 11.6 16 Sudeste 21 Sudeste 0 1005.6 -2.3 75
2018-11-28 22:00:00 12.1 11 Sudeste 20 Sur 0 1006.9 -0.7 79
2018-11-28 21:00:00 12.6 8 Sudeste 14 Sur 0 1007.3 0.1 80
2018-11-28 14:00:00 15.4 8 Este 15 Sudeste 0 1008.8 -1.5 55
2018-11-28 13:00:00 14.4 12 Sudeste 18 Este 0 1009.1 -1.5 50
2018-11-28 12:00:00 16.3 4 Norte 30 Sur 0 1010 -0.6 53
2018-11-28 11:00:00 15.9 12 Sudoeste 30 Sudeste 0 1010.3 -0.2 44
2018-11-28 10:00:00 9.6 22 Sudeste 31 Sudeste 0 1010.6 0.7 54
2018-11-28 09:00:00 7.3 25 Sudeste 33 Sudeste 0 1010.6 1.1 65
2018-11-28 08:00:00 5.5 22 Sudeste 26 Sudeste 0 1010.5 1 74
2018-11-28 07:00:00 5.6 20 Sur 26 Sudeste 0 1009.9 0.6 73
2018-11-28 06:00:00 6.8 19 Sudeste 29 Sudeste 0 1009.5 0.1 70
2018-11-28 05:00:00 7.8 14 Sudeste 26 Sudeste 0 1009.5 0 65
2018-11-28 04:00:00 8.3 22 Sudeste 29 Sudeste 0 1009.3 -0.8 65
2018-11-28 03:00:00 8.5 18 Sudeste 24 Sudeste 0 1009.4 -1 65
2018-11-28 02:00:00 8.9 19 Sudeste 28 Sudeste 0 1009.5 -1.7 66
2018-11-28 01:00:00 9.8 19 Sudeste 24 Sudeste 0 1010.1 -0.8 63
2018-11-28 00:00:00 10 19 Sudeste 23 Sudeste 0 1010.4 -0.6 64
2018-11-27 23:00:00 11.1 11 Sudoeste 14 Sudoeste 0 1011.2 0 68
2018-11-27 22:00:00 11.7 10 Sudeste 17 Sudeste 0 1010.9 -0.2 58
2018-11-27 21:00:00 11.5 12 Sudeste 15 Sudeste 0 1011 0.1 60
2018-11-27 20:00:00 12.4 9 Este 13 Este 0 1011.2 -0.1 57
2018-11-27 19:00:00 13.1 6 Este 15 Sudeste 0 1011.1 -0.3 54
2018-11-27 18:00:00 13.2 12 Sudeste 18 Este 0 1010.9 -1 62
2018-11-27 17:00:00 14.4 10 Oeste 32 Oeste 0 1011.3 -0.7 61
2018-11-27 16:00:00 14.7 27 Oeste 43 Oeste 0 1011.4 -1 53
2018-11-27 15:00:00 14.2 8 Oeste 20 Oeste 0 1011.9 -1.2 51
2018-11-27 14:00:00 13.4 8 Sudeste 15 Este 0 1012 -0.8 56
2018-11-27 13:00:00 12.9 12 Sudeste 17 Sudeste 0 1012.4 -0.2 60
2018-11-27 12:00:00 11.5 4 Sudeste 17 Sudeste 0 1013.1 0.5 65
2018-11-27 11:00:00 9.9 6 Sudeste 22 Sudeste 0 1012.8 0.3 63
2018-11-27 10:00:00 8.6 17 Sudeste 22 Sudeste 0 1012.6 0 68
2018-11-27 09:00:00 8.2 17 Sudeste 25 Sudeste 0 1012.6 0.1 69
2018-11-27 08:00:00 7.8 18 Sudeste 23 Sudeste 0 1012.5 0 71
2018-11-27 07:00:00 10 8 Oeste 16 Oeste 0 1012.6 -0.3 67
2018-11-27 06:00:00 9.1 7 Este 21 Nordeste 0 1012.5 -1.1 62
2018-11-27 05:00:00 9.6 14 Sudeste 23 Sudeste 0 1012.5 -1.3 63
2018-11-27 04:00:00 10 15 Sudeste 23 Sudeste 0 1012.9 -1.7 64
2018-11-27 03:00:00 9.9 9 Sudeste 24 Sudeste 0 1013.6 -1.1 65
2018-11-27 02:00:00 9.9 16 Sudeste 23 Sudeste 0 1013.8 -0.9 68
2018-11-27 01:00:00 9.6 18 Sudeste 30 Sur 0 1014.6 0 70
2018-11-27 00:00:00 11.7 17 Sudoeste 29 Sudoeste 0 1014.7 0 58
2018-11-26 23:00:00 11.4 16 Sudoeste 28 Sudoeste 0 1014.7 0.4 61
2018-11-26 22:00:00 11.1 7 Sudoeste 24 Oeste 0 1014.6 0.5 68
2018-11-26 21:00:00 11.8 15 Sudoeste 21 Sudoeste 0 1014.7 1.5 67
2018-11-26 20:00:00 11.9 15 Oeste 32 Oeste 0 1014.3 1.4 72
2018-11-26 19:00:00 12.3 19 Oeste 31 Oeste 0 1014.1 2.1 77
2018-11-26 18:00:00 12.5 20 Oeste 35 Oeste 0 1013.2 1.7 74
2018-11-26 17:00:00 12.7 18 Oeste 35 Oeste 0 1012.9 1.8 72
2018-11-26 16:00:00 13.4 15 Oeste 38 Oeste 0 1012 1 68
2018-11-26 15:00:00 12.8 29 Oeste 45 Oeste 0 1011.5 0.3 68
2018-11-26 14:00:00 12.4 31 Oeste 51 Oeste 0 1011.1 0.8 70
2018-11-26 13:00:00 12.6 32 Oeste 50 Oeste 0 1011 1.3 70
2018-11-26 12:00:00 12.5 36 Oeste 50 Oeste 0 1011.2 2.7 73
2018-11-26 11:00:00 11.9 31 Oeste 39 Oeste 0 1010.3 3.6 76
2018-11-26 10:00:00 10.9 26 Oeste 41 Oeste 0 1009.7 5.1 77
2018-11-26 09:00:00 10.6 21 Oeste 53 Noroeste 0 1008.5 5.1 79
2018-11-26 08:00:00 10.4 41 Oeste 50 Noroeste 0.2 1006.7 4.9 82
2018-11-26 07:00:00 9.7 40 Oeste 51 Oeste 0 1004.6 3.8 82
2018-11-26 06:00:00 9.1 11 Sudoeste 15 Sudoeste 0 1003.4 3 79
2018-11-26 05:00:00 8.6 10 Sudoeste 16 Sudeste 0 1001.8 1.4 82
2018-11-26 04:00:00 7.3 11 Sudeste 24 Sudeste 0.2 1000.8 0.6 84
2018-11-26 03:00:00 7 17 Sudeste 24 Sudeste 0.6 1000.4 1.5 85
2018-11-26 02:00:00 7.6 16 Sudoeste 37 Oeste 3.4 1000.4 3.1 83
2018-11-26 01:00:00 8.6 19 Sudoeste 34 Oeste 4.8 1000.2 2 87
2018-11-26 00:00:00 9.3 14 Oeste 23 Sudoeste 1.2 998.9 -0.6 83
2018-11-25 23:00:00 8.9 10 Sudeste 23 Sudeste 0.2 997.3 -2.2 81
2018-11-25 22:00:00 8.8 15 Sudeste 22 Sudeste 0.2 998.2 -1.2 82
2018-11-25 21:00:00 9.9 10 Sudeste 17 Nordeste 0 999.5 -0.3 73
2018-11-25 20:00:00 9.6 11 Sudeste 18 Sudeste 0 999.5 -0.5 74
2018-11-25 19:00:00 9.4 11 Sudeste 15 Sudeste 0 999.4 -0.8 77
2018-11-25 18:00:00 10 6 Sudeste 9 Sur 0 999.8 -1.1 74
2018-11-25 17:00:00 11.1 4 Sudeste 10 Nordeste 0 1000 -2.1 67
2018-11-25 16:00:00 12 3 Este 13 Noroeste 0 1000.2 -3.3 62
2018-11-25 15:00:00 12.1 5 Noroeste 22 Noroeste 0 1000.9 -3.1 61
2018-11-25 14:00:00 13.1 5 Oeste 10 Oeste 0 1002.1 -1.5 59
2018-11-25 13:00:00 12.3 6 Oeste 14 Oeste 0 1003.5 -0.5 64
2018-11-25 12:00:00 11.5 10 Sur 20 Sudeste 0 1004 0.3 72
2018-11-25 11:00:00 8.9 15 Sur 24 Sur 0 1003.6 0.3 77
2018-11-25 10:00:00 7.5 19 Sur 24 Sur 0 1004 1.2 81
2018-11-25 09:00:00 6.2 15 Sur 22 Sur 0 1003.7 1.2 86
2018-11-25 08:00:00 6.5 18 Sur 22 Sur 0 1003.3 1 87
2018-11-25 07:00:00 6.9 16 Sur 25 Sur 0 1002.8 0.6 86
2018-11-25 06:00:00 8.3 17 Sudoeste 30 Oeste 0 1002.5 0.9 85
2018-11-25 05:00:00 8.8 18 Sudoeste 30 Oeste 0 1002.3 0.9 87
2018-11-25 04:00:00 8.9 17 Sudoeste 44 Oeste 0 1002.2 1 90
2018-11-25 03:00:00 9 26 Oeste 45 Oeste 0.2 1001.6 0.9 92
2018-11-25 02:00:00 9.3 31 Oeste 47 Oeste 0.2 1001.4 1.2 93
2018-11-25 01:00:00 9.2 30 Oeste 43 Oeste 1.2 1001.2 2.4 93
2018-11-25 00:00:00 9.1 20 Oeste 31 Oeste 1 1000.7 2.6 93
2018-11-24 23:00:00 9.1 15 Oeste 57 Noroeste 2 1000.2 2.1 93
2018-11-24 22:00:00 9.3 42 Noroeste -- -- 5.8 998.8 0.5 92
2018-11-24 21:00:00 10.9 9 Nordeste 29 Este 4.8 998.1 -0.7 89
2018-11-24 20:00:00 11 17 Nordeste 35 Este 4 998.1 -2 87
2018-11-24 19:00:00 10.9 19 Este 32 Este 1.8 998.3 -2.5 85
2018-11-24 18:00:00 11 21 Este 39 Nordeste 1.2 998.8 -2.8 81
2018-11-24 17:00:00 11.5 17 Este 29 Este 0.8 1000.1 -1.6 83
2018-11-24 16:00:00 11.5 13 Este 21 Este 1.6 1000.8 -1.9 82
2018-11-24 15:00:00 12.8 9 Sudoeste 27 Nordeste 1.4 1001.6 -2.1 78
2018-11-24 14:00:00 13.2 13 Este 19 Este 0 1001.7 -2.4 70
2018-11-24 13:00:00 13.9 6 Este 10 Sudeste 0 1002.7 -1.5 62
2018-11-24 12:00:00 13.7 3 Este 6 Este 0 1003.7 -0.3 68
2018-11-24 11:00:00 12.9 3 Norte 10 Sudoeste 0 1004.1 0.2 67
2018-11-24 10:00:00 12.5 6 Oeste 14 Oeste 0 1004.2 0.6 67
2018-11-24 09:00:00 11.7 5 Este 18 Oeste 0 1004 0.5 66
2018-11-24 08:00:00 12.3 10 Sudoeste 37 Sudoeste 0 1003.9 0.8 66
2018-11-24 07:00:00 11.9 13 Oeste 31 Oeste 0.2 1003.6 0 71
2018-11-24 06:00:00 12.4 23 Oeste 44 Oeste 0 1003.5 -0.1 68
2018-11-24 05:00:00 13 38 Oeste 52 Oeste 0 1003.1 -0.4 59
2018-11-24 04:00:00 12.7 31 Oeste 51 Oeste 0 1003.6 0.2 61
2018-11-24 03:00:00 12.7 32 Oeste 52 Oeste 0 1003.6 0.1 60
2018-11-24 02:00:00 12.7 40 Oeste 52 Sudoeste 0 1003.5 0.3 62
2018-11-24 01:00:00 12.8 37 Oeste 51 Sudoeste 0 1003.4 0.4 58
2018-11-24 00:00:00 12.6 33 Oeste 52 Sudoeste 0 1003.5 0.4 62
2018-11-23 23:00:00 12.6 31 Oeste 45 Oeste 0 1003.2 -0.1 61
2018-11-23 22:00:00 12.6 29 Oeste 41 Oeste 0 1003 -0.3 60
2018-11-23 21:00:00 12.4 24 Oeste 35 Oeste 0 1003.1 -0.1 60
2018-11-23 20:00:00 12 12 Oeste 37 Oeste 0 1003.3 0.4 64
2018-11-23 19:00:00 12.4 26 Oeste 37 Oeste 0 1003.3 0.7 58
2018-11-23 18:00:00 12.5 26 Oeste 45 Oeste 0 1003.2 1.4 59
2018-11-23 17:00:00 13.6 23 Oeste 47 Oeste 0 1002.9 1.1 54
2018-11-23 16:00:00 14 31 Oeste 65 Oeste 0 1002.6 0.1 54
2018-11-23 15:00:00 13.4 51 Oeste 66 Oeste 0 1001.8 -1.4 52
2018-11-23 14:00:00 13.5 45 Oeste 64 Oeste 0 1001.8 -1.4 56
2018-11-23 13:00:00 13.3 36 Oeste 62 Oeste 0 1002.5 -0.9 55
2018-11-23 12:00:00 13 23 Oeste 39 Oeste 0 1003.2 -0.1 51
2018-11-23 11:00:00 12.4 17 Oeste 32 Oeste 0 1003.2 0.1 58
2018-11-23 10:00:00 12.5 9 Sudoeste 23 Sur 0 1003.4 0.4 55
2018-11-23 09:00:00 10.8 16 Oeste 26 Noroeste 0 1003.3 0.8 63
2018-11-23 08:00:00 10.4 10 Sudoeste 15 Oeste 0 1003.1 0.6 62
2018-11-23 07:00:00 11 10 Sudoeste 26 Noroeste 0 1003 0.5 59
2018-11-23 06:00:00 11.5 15 Sudoeste -- -- 0 1002.5 0 59
2018-11-23 05:00:00 11.4 30 Oeste 40 Oeste 0 1002.5 0.3 61
2018-11-23 04:00:00 11.5 26 Oeste 35 Sudoeste 0 1002.5 -0.2 59
2018-11-23 03:00:00 11.7 13 Sudoeste 29 Sudoeste 0 1002.5 -0.1 57
2018-11-23 02:00:00 10.5 13 Sudoeste 22 Noroeste 0 1002.2 -0.4 64
2018-11-23 01:00:00 10.4 10 Sudoeste 21 Oeste 0 1002.7 0.3 63
2018-11-23 00:00:00 11.9 13 Sudoeste 19 Sur 0 1002.6 0.1 59
2018-11-22 23:00:00 11.3 11 Sur 23 Sur 0 1002.6 0.4 61
2018-11-22 22:00:00 10.8 15 Sudeste 17 Sur 0 1002.4 0.5 65
2018-11-22 21:00:00 12.7 5 Sudoeste 19 Oeste 0 1002.5 1.2 57
2018-11-22 20:00:00 14 12 Sur 19 Sur 0 1002.2 0.8 47
2018-11-22 19:00:00 13.1 8 Sudeste 22 Este 0 1001.9 0.3 53
2018-11-22 18:00:00 13 11 Este 19 Este 0 1001.3 -0.3 69
2018-11-22 17:00:00 13.4 10 Este 18 Este 0 1001.4 -0.6 70
2018-11-22 16:00:00 13.5 8 Este 15 Este 0 1001.6 -0.9 68
2018-11-22 15:00:00 13.3 10 Este -- -- 0 1001.6 -1.3 67
2018-11-22 14:00:00 13.3 10 Este 19 Este 0 1002 -0.9 59
2018-11-22 13:00:00 12.9 10 Este 16 Este 0 1002.5 -0.2 63
2018-11-22 12:00:00 12.9 4 Sudeste 22 Sur 0 1002.9 0.6 53
2018-11-22 11:00:00 12 11 Sur 22 Sur 0 1002.9 1.2 54
2018-11-22 10:00:00 11.4 13 Sudeste 22 Sudoeste 0 1002.7 1.1 57
2018-11-22 09:00:00 10.7 8 Este 17 Nordeste 0 1002.3 0.9 58
2018-11-22 08:00:00 11 9 Sudeste 18 Sudoeste 0 1001.7 0.1 57
2018-11-22 07:00:00 11.8 12 Sudoeste 20 Sudoeste 0 1001.6 -0.1 57
2018-11-22 06:00:00 11.6 13 Sudoeste 24 Sur 0 1001.4 -0.4 55
2018-11-22 05:00:00 10.6 4 Sudoeste 15 Sudeste 0 1001.6 -0.1 60
2018-11-22 04:00:00 9.6 12 Sudeste 21 Sudeste 0 1001.7 -0.1 65
2018-11-22 03:00:00 10.6 7 Oeste 23 Sudoeste 0 1001.8 0.2 67
2018-11-22 02:00:00 9.5 11 Sudeste 19 Sur 0 1001.7 0 67
2018-11-22 01:00:00 9.2 13 Sudeste 20 Sudeste 0 1001.8 0.7 70
2018-11-22 00:00:00 9.8 15 Sudeste 20 Sudeste 0 1001.6 0.8 68
2018-11-21 23:00:00 11.8 15 Sur 19 Sur 0 1001.7 1.4 57
2018-11-21 22:00:00 10.6 10 Sur 17 Sudeste 0 1001.1 1.3 66
2018-11-21 21:00:00 12.2 9 Sudoeste 15 Sudeste 0 1000.8 1.5 56
2018-11-21 20:00:00 11.6 11 Sudeste 17 Noroeste 0 1000.3 1.5 59
2018-11-21 19:00:00 12.7 11 Oeste 26 Noroeste 0 999.8 1.5 63
2018-11-21 18:00:00 13.5 7 Sudoeste 28 Oeste 0 999.3 1.2 50
2018-11-21 17:00:00 14.2 -- -- -- -- 0 998.8 0.8 49
2018-11-21 16:00:00 14.7 21 Oeste 37 Oeste 0 998.3 0.1 49
2018-11-21 15:00:00 14.3 11 Oeste 26 Oeste 0 998.1 -0.3 63
2018-11-21 14:00:00 13.6 4 Este 13 Sur 0 998 -0.2 64
2018-11-21 13:00:00 13.9 4 Norte 9 Norte 0 998.2 0.4 60
2018-11-21 12:00:00 12.4 4 Este 21 Sudeste 0 998.4 1.2 67
2018-11-21 11:00:00 8.2 15 Sudeste 21 Sur 0 998.2 1.3 78
2018-11-21 10:00:00 8 14 Sudeste 19 Sudeste 0 997.8 1.4 77
2018-11-21 09:00:00 7.4 14 Sudeste 22 Sur 0 997.2 0.8 79
2018-11-21 08:00:00 6.8 14 Sur 22 Sur 0 996.9 0.6 82
2018-11-21 07:00:00 6.9 16 Sudeste 21 Sudeste 0 996.4 0.1 83
2018-11-21 06:00:00 6.3 14 Sudeste 19 Sudeste 0 996.4 0.3 85
2018-11-21 05:00:00 6.8 12 Sur 17 Sudeste 0 996.3 0.1 83
2018-11-21 04:00:00 7.3 9 Sur 17 Sur 0 996.3 0 83
2018-11-21 03:00:00 7.2 11 Sur 16 Sur 0 996.1 0.2 82
2018-11-21 02:00:00 7.4 10 Sur 14 Sur 0 996.2 0.7 81
2018-11-21 01:00:00 7.9 12 Sur 15 Sur 0 996.3 1 80
2018-11-21 00:00:00 8.2 6 Sudoeste 15 Sur 0 995.9 0.7 82
2018-11-20 23:00:00 8.2 13 Sur 17 Sur 0 995.5 0.7 81
2018-11-20 22:00:00 8.6 12 Sudeste 15 Sudeste 0 995.3 0.6 78
2018-11-20 21:00:00 9.1 11 Sudeste 15 Sur 0 995.2 0.9 73
2018-11-20 20:00:00 9.2 11 Sudeste 15 Sudeste 0 994.8 0.9 71
2018-11-20 19:00:00 9.3 9 Sudeste 12 Sur 0 994.7 1.1 72
2018-11-20 18:00:00 9.6 8 Sudeste 13 Nordeste 0 994.3 0.7 71
2018-11-20 17:00:00 10 6 Sudeste 14 Nordeste 0 993.9 0.1 68
2018-11-20 16:00:00 10.3 5 Sudeste 21 Nordeste 0 993.6 -0.2 66
2018-11-20 15:00:00 10.3 11 Este 22 Este 0 993.6 -0.3 64
2018-11-20 14:00:00 10.1 13 Este 26 Este 0 993.8 0.2 68
2018-11-20 13:00:00 9.7 18 Este 36 Nordeste 0 993.8 0.6 70
2018-11-20 12:00:00 9.7 19 Este 37 Nordeste 0 993.9 1 76
2018-11-20 11:00:00 9.5 24 Este 40 Este 0 993.6 1 79
2018-11-20 10:00:00 9.3 23 Este 41 Este 0 993.2 0.8 83
2018-11-20 09:00:00 9.5 26 Este 43 Este 1 992.9 0.2 85
2018-11-20 08:00:00 10.6 15 Nordeste 30 Nordeste 0 992.6 -0.2 80
2018-11-20 07:00:00 10.6 18 Este 31 Nordeste 0 992.4 -0.8 78
2018-11-20 06:00:00 10.6 19 Este 33 Nordeste 0 992.7 -1 77
2018-11-20 05:00:00 10.9 19 Este 33 Este 0 992.8 -1.3 76
2018-11-20 04:00:00 11.2 20 Este 35 Nordeste 0 993.2 -1.3 74
2018-11-20 03:00:00 11.3 21 Este 33 Este 0 993.7 -1.2 78
2018-11-20 02:00:00 11.4 20 Este 35 Nordeste 0 994.1 -1 81
2018-11-20 01:00:00 11.5 22 Nordeste 40 Este 0.4 994.5 -1 84
2018-11-20 00:00:00 12.1 22 Nordeste 40 Nordeste 0.4 994.9 -0.9 82
2018-11-19 23:00:00 12.9 19 Este 33 Este 0 995.1 -0.8 80
2018-11-19 22:00:00 12.8 14 Este 30 Nordeste 0 995.5 -0.2 80
2018-11-19 21:00:00 13 20 Este 38 Nordeste 0 995.8 0 80
2018-11-19 20:00:00 13.3 21 Este 36 Nordeste 0 995.9 0.3 81
2018-11-19 19:00:00 13.6 20 Nordeste 37 Nordeste 0 995.7 0.2 81
2018-11-19 18:00:00 13.7 20 Nordeste 37 Nordeste 0 995.8 0.4 81
2018-11-19 17:00:00 14.6 13 Nordeste 36 Nordeste 0 995.6 -0.1 79
2018-11-19 16:00:00 15 16 Nordeste 34 Nordeste 0 995.5 -0.7 78
2018-11-19 15:00:00 15.1 16 Nordeste 33 Nordeste 0 995.4 -1.2 79
2018-11-19 14:00:00 15 12 Nordeste 28 Nordeste 0 995.7 -1 76
2018-11-19 13:00:00 14.9 9 Nordeste 20 Nordeste 0 996.2 -0.3 74
2018-11-19 12:00:00 15.3 4 Oeste 16 Noroeste 0 996.6 0.1 73
2018-11-19 11:00:00 14.4 6 Este 18 Sudeste 0 996.7 0.8 71
2018-11-19 10:00:00 11.6 13 Sudeste 22 Sudeste 0 996.5 1 80
2018-11-19 09:00:00 10.3 16 Sudeste 26 Sudeste 0 996.5 1.4 84
2018-11-19 08:00:00 10.5 17 Sudeste 23 Sudeste 0 995.9 1.3 84
2018-11-19 07:00:00 10.6 18 Sudeste 23 Sudeste 0 995.5 1 84
2018-11-19 06:00:00 12.4 13 Sudeste 27 Nordeste 0 995.1 0.6 78
2018-11-19 05:00:00 11.9 15 Sudeste 26 Sur 0 994.6 0.1 80
2018-11-19 04:00:00 12.1 18 Sur 23 Sudeste 0 994.5 -0.2 80
2018-11-19 03:00:00 12.3 12 Sudeste 22 Sudeste 0 994.5 -0.6 79
2018-11-19 02:00:00 12.4 14 Sudeste 22 Sudeste 0 994.5 -0.7 82
2018-11-19 01:00:00 12.2 10 Este 15 Este 0 994.7 -0.5 82
2018-11-19 00:00:00 12.4 10 Este 18 Nordeste 0 995.1 -0.4 85
2018-11-18 23:00:00 11.8 12 Sudeste 21 Este 0 995.2 -0.5 85
2018-11-18 22:00:00 13 8 Este 22 Nordeste 0 995.2 -0.8 86
2018-11-18 21:00:00 13.6 9 Nordeste 31 Nordeste 0 995.5 -0.5 87
2018-11-18 20:00:00 13.8 13 Nordeste 31 Este 0.2 995.7 -0.6 89
2018-11-18 19:00:00 13.9 20 Nordeste 45 Nordeste 1.4 996 -0.4 89
2018-11-18 18:00:00 13.8 24 Nordeste 49 Nordeste 0 996 -0.8 87
2018-11-18 17:00:00 13.7 28 Nordeste 53 Nordeste 0 996.3 -0.9 86
2018-11-18 16:00:00 13.7 28 Nordeste 49 Nordeste 0 996.4 -1.3 87
2018-11-18 15:00:00 13.8 23 Nordeste 44 Este 0 996.8 -1.5 87
2018-11-18 14:00:00 13.9 20 Nordeste 41 Nordeste 0 997.2 -1.4 86
2018-11-18 13:00:00 14.5 15 Nordeste 36 Nordeste 0 997.7 -1.2 85
2018-11-18 12:00:00 14.5 18 Nordeste 38 Nordeste 0 998.3 -0.4 82
2018-11-18 11:00:00 14.4 22 Este 40 Este 0 998.6 0.1 81
2018-11-18 10:00:00 14.2 12 Este 32 Nordeste 0 998.9 0.6 78
2018-11-18 09:00:00 12.3 15 Este 54 Este 0 998.7 0.4 80
2018-11-18 08:00:00 13.1 23 Este 40 Este 0 998.5 -0.1 82
2018-11-18 07:00:00 12.5 16 Este 42 Nordeste 0 998.3 -0.8 79
2018-11-18 06:00:00 12.4 18 Este 31 Este 0 998.3 -1.2 79
2018-11-18 05:00:00 10.7 13 Sudeste 29 Nordeste 0 998.6 -1.2 72
2018-11-18 04:00:00 12.8 11 Este 26 Nordeste 0 999.1 -1 74
2018-11-18 03:00:00 12.4 12 Sudeste 20 Sudeste 0 999.5 -1.2 71
2018-11-18 02:00:00 12.5 14 Sudeste 24 Sudeste 0 999.8 -1.1 66
2018-11-18 01:00:00 12.2 13 Sudeste 24 Sudeste 0 1000.1 -1.2 68
2018-11-18 00:00:00 12.3 13 Sudeste 23 Sudeste 0 1000.7 -0.9 68
2018-11-17 23:00:00 13.6 14 Sudeste 26 Sudeste 0 1000.9 -1 63
2018-11-17 22:00:00 14.4 17 Sudeste 27 Sudeste 0 1001.3 -0.7 62
2018-11-17 21:00:00 16.2 18 Sudeste 25 Sudeste 0 1001.6 -0.5 54
2018-11-17 20:00:00 16.7 13 Este 20 Nordeste 0 1001.9 -0.2 58
2018-11-17 19:00:00 16.8 13 Sudeste 20 Sudeste 0 1002 -0.3 58
2018-11-17 18:00:00 19 14 Este 24 Este 0 1002.1 -0.9 49
2018-11-17 17:00:00 19.2 14 Este 25 Este 0 1002.1 -1.9 54
2018-11-17 16:00:00 19.7 17 Este 26 Este 0 1002.3 -2.3 52
2018-11-17 15:00:00 19.9 13 Este 22 Este 0 1003 -2.1 51
2018-11-17 14:00:00 19.1 5 Este 10 Este 0 1004 -1.4 54
2018-11-17 13:00:00 18 7 Este 9 Este 0 1004.6 -0.9 60
2018-11-17 12:00:00 18.9 6 Sur 19 Sudeste 0 1005.1 -0.3 60
2018-11-17 11:00:00 16.3 17 Sudeste 23 Sudeste 0 1005.4 0.7 62
2018-11-17 10:00:00 13.6 19 Sudeste 26 Sudeste 0 1005.5 0.7 69
2018-11-17 09:00:00 11.2 21 Sudeste 27 Sudeste 0 1005.4 0.5 76
2018-11-17 08:00:00 11.4 21 Sudeste 26 Sudeste 0 1004.7 -0.4 74
2018-11-17 07:00:00 11.5 21 Sudeste 27 Sudeste 0 1004.8 -0.7 75
2018-11-17 06:00:00 11.6 21 Sudeste 28 Sudeste 0 1004.9 -0.8 75
2018-11-17 05:00:00 11.8 22 Sudeste 28 Sudeste 0 1005.1 -0.6 75
2018-11-17 04:00:00 12.6 19 Sudeste 28 Sudeste 0 1005.5 -0.3 72
2018-11-17 03:00:00 12.8 17 Sudeste 28 Sudeste 0 1005.7 -0.2 72
2018-11-17 02:00:00 12.7 19 Sudeste 24 Sur 0 1005.7 -0.4 73
2018-11-17 01:00:00 13.3 15 Sudeste 21 Sudeste 0 1005.8 -0.2 73
2018-11-17 00:00:00 13.1 13 Sudeste 25 Sur 0 1005.9 -0.3 74
2018-11-16 23:00:00 14.4 20 Sur 27 Sudeste 0 1006.1 -0.4 70
2018-11-16 22:00:00 14.4 18 Sudeste 27 Sudeste 0 1006 -0.6 72
2018-11-16 21:00:00 14.4 17 Sudeste 22 Sudeste 0 1006.2 -0.3 76
2018-11-16 20:00:00 13.8 11 Sudeste 16 Sudeste 0 1006.5 -0.2 82
2018-11-16 19:00:00 14.1 3 Nordeste 13 Este 0 1006.6 -0.4 85
2018-11-16 18:00:00 14.7 9 Este 12 Este 0 1006.5 -0.9 81
2018-11-16 17:00:00 16.2 4 Sudeste 11 Este 0 1006.7 -1.4 69
2018-11-16 16:00:00 16.2 8 Este 15 Este 0 1007 -1.8 70
2018-11-16 15:00:00 16.8 6 Este 12 Este 0 1007.4 -2.2 69
2018-11-16 14:00:00 16.2 10 Este 15 Este 0 1008.1 -1.8 70
2018-11-16 13:00:00 16.8 2 Nordeste 10 Sudeste 0 1008.8 -1.3 71
2018-11-16 12:00:00 15.6 5 Sudoeste 9 Oeste 0 1009.6 -0.1 74
2018-11-16 11:00:00 14.9 5 Sudoeste 13 Sur 0 1009.9 0.6 72
2018-11-16 10:00:00 13.2 10 Sur 22 Sur 0 1010.1 1.4 72
2018-11-16 09:00:00 11.1 15 Sudeste 23 Sudeste 0 1009.7 1 77
2018-11-16 08:00:00 10.9 17 Sur 28 Sudeste 0 1009.3 0.2 77
2018-11-16 07:00:00 12.1 22 Sudeste 30 Sudeste 0 1008.7 -0.8 73
2018-11-16 06:00:00 12.2 24 Sudeste 33 Sudeste 0 1008.7 -1.1 74
2018-11-16 05:00:00 12.3 20 Sudeste 27 Sur 0 1009.1 -0.6 74
2018-11-16 04:00:00 12 18 Sudeste 26 Sudeste 0 1009.5 0.1 78
2018-11-16 03:00:00 11.8 10 Sur 17 Sudoeste 0 1009.8 0.3 78
2018-11-16 02:00:00 13.3 14 Sudoeste 26 Sudeste 0 1009.7 -0.2 77
2018-11-16 01:00:00 13 20 Sur 24 Sudeste 0 1009.4 -1.1 78
2018-11-16 00:00:00 13.6 17 Sudeste 24 Sudeste 0 1009.5 -0.9 76
2018-11-15 23:00:00 14 16 Sudeste 23 Sudeste 0 1009.9 -0.9 75
2018-11-15 22:00:00 13.6 14 Sudeste 19 Sudeste 0 1010.5 0.4 79
2018-11-15 21:00:00 14.4 12 Sudeste 20 Este 0 1010.4 1 77
2018-11-15 20:00:00 14.9 7 Este 20 Este 0 1010.8 2 74
2018-11-15 19:00:00 15.6 12 Este 22 Este 0 1010.1 1.7 70
2018-11-15 18:00:00 16.8 13 Este 34 Este 0 1009.4 0.9 62
2018-11-15 17:00:00 17.4 17 Este 30 Este 0 1008.8 -0.4 59
2018-11-15 16:00:00 17.8 13 Este 29 Este 0 1008.4 -1 63
2018-11-15 15:00:00 18.5 11 Este 18 Este 0 1008.5 -1.1 55
2018-11-15 14:00:00 17.4 9 Este 15 Este 0 1009.2 -0.1 63
2018-11-15 13:00:00 18.8 9 Este 12 Este 0 1009.4 0.4 61
2018-11-15 12:00:00 18.4 6 Sudeste 16 Sudeste 0 1009.6 1.3 63
2018-11-15 11:00:00 16.3 10 Sudeste 21 Sur 0 1009.3 1.4 69
2018-11-15 10:00:00 13.8 15 Sudeste 23 Sudeste 0 1009 1.7 73
2018-11-15 09:00:00 12.3 14 Sudeste 21 Sur 0 1008.3 1.6 77
2018-11-15 08:00:00 11.7 14 Sur 18 Sudeste 0 1007.9 1.5 79
2018-11-15 07:00:00 12 10 Sur 18 Oeste 0 1007.3 0.6 73
2018-11-15 06:00:00 13.4 14 Oeste 24 Sur 0 1006.7 0 71
2018-11-15 05:00:00 13.6 20 Sudeste 27 Sudeste 0 1006.4 -0.5 68
2018-11-15 04:00:00 12.3 12 Sur 21 Sudeste 0 1006.7 -0.6 72
2018-11-15 03:00:00 11.4 15 Sudeste 19 Sudeste 0 1006.7 -1 76
2018-11-15 02:00:00 12.2 9 Sur 27 Sudeste 0 1006.9 -1.3 75
2018-11-15 01:00:00 12.2 15 Sur 26 Sur 0 1007.3 -1.2 75
2018-11-15 00:00:00 12.6 10 Sur 23 Sur 0 1007.7 -1.2 75
2018-11-14 23:00:00 12.1 14 Sur 22 Sur 0 1008.2 -1.2 79
2018-11-14 22:00:00 12.8 14 Sudeste 23 Sur 0 1008.5 -1.1 78
2018-11-14 21:00:00 12.5 14 Sudeste 20 Sudeste 0 1008.9 -0.8 77
2018-11-14 20:00:00 13.1 12 Sudeste 18 Este 0 1009.4 -0.5 77
2018-11-14 19:00:00 13.3 12 Este 17 Este 0 1009.6 -0.4 77
2018-11-14 18:00:00 13.9 8 Sudeste 10 Sudeste 0 1009.7 -0.6 71
2018-11-14 17:00:00 14.9 8 Este 13 Este 0 1009.9 -1 71
2018-11-14 16:00:00 15.3 9 Este 13 Este 0 1010 -1.5 70
2018-11-14 15:00:00 15.3 8 Este 13 Este 0 1010.3 -1.9 65
2018-11-14 14:00:00 14.6 4 Nordeste 7 Nordeste 0 1010.9 -1.7 73
2018-11-14 13:00:00 14.3 3 Norte 10 Nordeste 0 1011.5 -1.3 73
2018-11-14 12:00:00 15.3 5 Noroeste 36 Sudoeste 0 1012.2 -0.5 67
2018-11-14 11:00:00 14.1 3 Sudoeste 14 Sur 0 1012.6 0.4 71
2018-11-14 10:00:00 11 13 Sur 18 Sur 0 1012.8 0.3 75
2018-11-14 09:00:00 9.3 14 Sur 22 Sudeste 0 1012.7 -0.2 79
2018-11-14 08:00:00 8.7 18 Sudeste 25 Sudeste 0 1012.2 -1 80
2018-11-14 07:00:00 9.1 19 Sudeste 23 Sudeste 0 1012.5 -1.2 79
2018-11-14 06:00:00 8.6 16 Sudeste 22 Sudeste 0 1012.9 -1 81
2018-11-14 05:00:00 8.7 17 Sudeste 20 Sudeste 0 1013.2 -1.3 81
2018-11-14 04:00:00 9.1 18 Sudeste 22 Sudeste 0 1013.7 -1.6 80
2018-11-14 03:00:00 9.3 17 Sudeste 24 Sudeste 0 1013.9 -1.9 80
2018-11-14 02:00:00 9.5 17 Sudeste 23 Sudeste 0 1014.5 -1.5 80
2018-11-14 01:00:00 9.3 17 Sudeste 23 Sudeste 0 1015.3 -0.9 81
2018-11-14 00:00:00 9.5 14 Sur 23 Sudeste 0 1015.8 -0.5 82
2018-11-13 23:00:00 9.8 19 Sudeste 24 Sudeste 0 1016 -0.4 82
2018-11-13 22:00:00 10.2 17 Sudeste 22 Sudeste 0 1016.2 -0.2 83
2018-11-13 21:00:00 10.2 14 Sur 20 Sudeste 0 1016.3 -0.1 84
2018-11-13 20:00:00 10.5 13 Sudeste 15 Sudeste 0 1016.4 -0.2 85
2018-11-13 19:00:00 11.2 6 Sur 17 Este 0 1016.4 -0.3 82
2018-11-13 18:00:00 14 10 Este 24 Este 0 1016.4 -0.4 82
2018-11-13 17:00:00 14.5 16 Este 28 Este 0 1016.6 -0.7 79
2018-11-13 16:00:00 15.1 12 Nordeste 28 Nordeste 0 1016.7 -1.4 74
2018-11-13 15:00:00 15 12 Nordeste 30 Nordeste 0 1016.8 -2.1 74
2018-11-13 14:00:00 14.7 10 Este 22 Este 0 1017.3 -2 70
2018-11-13 13:00:00 14.1 8 Nordeste 15 Nordeste 0 1018.1 -0.9 71
2018-11-13 12:00:00 13.5 5 Este 15 Sudeste 0 1018.9 0.3 68
2018-11-13 11:00:00 11.4 10 Sudeste 23 Sudeste 0 1019.3 1.7 71
2018-11-13 10:00:00 8.9 18 Sudeste 24 Sudeste 0 1019 1.4 75
2018-11-13 09:00:00 7.1 19 Sudeste 24 Sudeste 0 1018.6 1 82
2018-11-13 08:00:00 7.6 19 Sudeste 33 Sudeste 0 1017.6 0.4 81
2018-11-13 07:00:00 7.3 25 Sudeste 32 Sudeste 0 1017.6 0.6 81
2018-11-13 06:00:00 7.3 22 Sudeste 29 Sudeste 0 1017.6 1.4 83
2018-11-13 05:00:00 7.5 20 Sudeste 28 Sudeste 0 1017.2 1.4 83
2018-11-13 04:00:00 7.8 19 Sudeste 25 Sudeste 0 1017 1.1 84
2018-11-13 03:00:00 8 18 Sudeste 26 Sudeste 0 1016.2 0.6 84
2018-11-13 02:00:00 8.5 21 Sudeste 27 Sudeste 0 1015.8 0.5 83
2018-11-13 01:00:00 9.1 19 Sudeste 26 Sudeste 0 1015.9 1 82
2018-11-13 00:00:00 9.4 19 Sudeste 26 Sudeste 0 1015.6 1.4 83
2018-11-12 23:00:00 9.6 19 Sudeste 24 Sudeste 0 1015.3 1.9 84
2018-11-12 22:00:00 9.8 17 Sudeste 21 Sudeste 0 1014.9 2.8 86
2018-11-12 21:00:00 10 16 Sudeste 19 Sudeste 0 1014.2 3 84
2018-11-12 20:00:00 11 12 Sudeste 17 Sudeste 0 1013.4 2.9 79
2018-11-12 19:00:00 11.7 13 Sudeste 15 Sudeste 0 1012.1 2.3 79
2018-11-12 18:00:00 12.6 8 Sudeste 9 Sudeste 0 1011.2 1.9 74
2018-11-12 17:00:00 15.3 3 Este 7 Este 0 1010.5 1.3 67
2018-11-12 16:00:00 15.3 4 Este 9 Este 0 1009.8 0.9 67
2018-11-12 15:00:00 16.2 4 Oeste 13 Oeste 0 1009.3 0.6 71
2018-11-12 14:00:00 15.2 7 Noroeste 13 Noroeste 0 1009.2 0.4 66
2018-11-12 13:00:00 15.4 4 Este 10 Noroeste 0 1008.9 0.8 64
2018-11-12 12:00:00 15 4 Noroeste 10 Sudeste 0 1008.7 1.8 66
2018-11-12 11:00:00 13.4 9 Sur 21 Sudeste 0 1008.8 2.6 69
2018-11-12 10:00:00 10.7 17 Sur 24 Sudeste 0 1008.1 2.2 77
2018-11-12 09:00:00 8.8 17 Sudeste 22 Sur 0 1006.9 1.9 81
2018-11-12 08:00:00 8.6 15 Sudeste 21 Sudeste 0 1006.2 2 83
2018-11-12 07:00:00 8.6 10 Sur 18 Sur 0 1005.9 2.3 83
2018-11-12 06:00:00 9 9 Sur 19 Sur 0 1005 2.2 84
2018-11-12 05:00:00 9.2 12 Sur 18 Sur 0 1004.2 1.9 84
2018-11-12 04:00:00 9.9 12 Sur 17 Sudoeste 0 1003.6 1.4 83
2018-11-12 03:00:00 10.5 12 Sur 16 Sur 0 1002.8 1.2 82
2018-11-12 02:00:00 11 11 Sur 18 Sudoeste 0 1002.3 0.8 83
2018-11-12 01:00:00 11.6 8 Sudoeste 12 Oeste 0 1002.2 1 81
2018-11-12 00:00:00 11.4 3 Sudeste 9 Oeste 0 1001.6 0.2 85
2018-11-11 23:00:00 11.6 8 Sudeste 21 Sudeste 0 1001.5 0.3 87
2018-11-11 22:00:00 11.8 15 Sudeste 21 Sudeste 0.2 1001.2 0.3 88
2018-11-11 21:00:00 12.1 8 Sur 11 Sudeste 1 1001.4 1.1 86
2018-11-11 20:00:00 12.2 8 Sudeste 14 Nordeste 0.6 1001.2 1 85
2018-11-11 19:00:00 12.9 4 Sudeste 12 Oeste 0.2 1000.9 1.6 83
2018-11-11 18:00:00 13.1 3 Sudoeste 28 Noroeste 0.4 1000.3 0.9 81
2018-11-11 17:00:00 13.9 5 Sudeste 13 Sudeste 0 1000.2 0.4 81
2018-11-11 16:00:00 14.4 5 Este 12 Sudeste 0.2 999.3 -1 80
2018-11-11 15:00:00 14.5 5 Sudeste 9 Sur 0 999.4 -1.1 80
2018-11-11 14:00:00 14.5 6 Sudeste 14 Oeste 0 999.8 -0.1 80
2018-11-11 13:00:00 14.4 10 Oeste 14 Oeste 0 1000.3 0.9 77
2018-11-11 12:00:00 14.7 6 Sur 9 Oeste 0 1000.5 3.1 79
2018-11-11 11:00:00 14.3 4 Oeste 37 Oeste 0 999.9 2.7 80
2018-11-11 10:00:00 13.7 29 Oeste 66 Oeste 0 999.4 3.1 80
2018-11-11 09:00:00 16.9 36 Oeste 52 Oeste 0 997.4 1.5 63
2018-11-11 08:00:00 16.2 18 Oeste 43 Oeste 0 997.2 1.3 68
2018-11-11 07:00:00 16.8 27 Sudoeste 49 Sudoeste 0.2 996.3 1.5 61
2018-11-11 06:00:00 17.5 24 Sudoeste 56 Oeste 0 995.9 0.3 56
2018-11-11 05:00:00 17.8 19 Sudoeste 68 Oeste 0 995.9 -1.2 55
2018-11-11 04:00:00 17.6 22 Sudoeste 63 Oeste 0 994.8 -2.2 54
2018-11-11 03:00:00 17.4 36 Oeste 64 Oeste 0 995.6 -1.3 54
2018-11-11 02:00:00 17.2 35 Oeste 69 Oeste 0 997.1 -0.2 57
2018-11-11 01:00:00 16.8 27 Oeste 60 Oeste 0 997 1.3 57
2018-11-11 00:00:00 17.1 45 Oeste 74 Oeste 0 996.9 1.1 54
2018-11-10 23:00:00 17.1 46 Oeste 87 Sudoeste 0 997.3 0.5 54
2018-11-10 22:00:00 17.4 50 Sudoeste 92 Sudoeste 0 995.7 -1 51
2018-11-10 21:00:00 17.1 61 Oeste 90 Sudoeste 0 995.8 -1 53
2018-11-10 20:00:00 16.7 47 Oeste 88 Oeste 0 996.8 0.8 53
2018-11-10 19:00:00 16.6 48 Oeste 83 Oeste 0 996.7 1.3 50
2018-11-10 18:00:00 16.8 44 Oeste 76 Oeste 0 996.8 0.7 52
2018-11-10 17:00:00 17.7 54 Oeste 73 Oeste 0 996 -0.4 50
2018-11-10 16:00:00 17.6 52 Oeste 76 Oeste 0 995.4 -1.1 56
2018-11-10 15:00:00 17.1 27 Oeste 44 Oeste 0 996.1 -0.7 68
2018-11-10 14:00:00 16.2 28 Oeste -- -- 0 996.4 -0.9 67
2018-11-10 13:00:00 15.6 32 Oeste 57 Oeste 0 996.5 -0.3 67
2018-11-10 12:00:00 16.3 40 Oeste 71 Sudoeste 0 996.8 -0.6 56
2018-11-10 11:00:00 16 28 Oeste 67 Oeste 0 997.3 0.2 57
2018-11-10 10:00:00 15.5 29 Oeste 62 Oeste 0 996.8 -0.2 57
2018-11-10 09:00:00 14.6 21 Oeste -- -- 0 997.4 1.4 63
2018-11-10 08:00:00 13.5 21 Oeste 37 Oeste 0 997.1 1.8 84
2018-11-10 07:00:00 13.7 19 Oeste 53 Oeste 0.6 997 1.5 88
2018-11-10 06:00:00 14.2 39 Oeste -- -- 0.2 996 0.2 84
2018-11-10 05:00:00 15.2 17 Oeste 36 Oeste 0 995.3 -1.1 79
2018-11-10 04:00:00 15.1 22 Oeste 37 Noroeste 0 995.5 -0.9 78
2018-11-10 03:00:00 15.6 22 Sudoeste 44 Sudoeste 1.2 995.8 0.2 85
2018-11-10 02:00:00 13.7 36 Oeste 65 Oeste 1.4 996.4 2.1 89
2018-11-10 01:00:00 13.5 36 Oeste 74 Oeste 0.4 996.4 1.4 88
2018-11-10 00:00:00 16.1 36 Oeste -- -- 0.2 995.6 0.2 79